KFFZ

Falcon Field Airport

Mesa, Arizona, USA
METAR KFFZ 161254Z 03010KT 10SM CLR 13/M08 A3013 RMK AO2 SLP191 T01281078
Observed Flight Rules
Dec-16 @ 12:54 UTC (51 minutes ago) Visual Flight Rules
Wind Visibility Clouds
30° at 10 knots 10 miles
  • Clear skies
Temperatures Readings
Current 13°C / 55°F
Dewpoint -8°C / 18°F
Humidity 23%
Altimeter 30.13" Hg
Pressure 1019.1 hPa
Elevation 424
METAR KFFZ 161254Z 03010KT 10SM CLR 13/M08 A3013 RMK AO2 SLP191 T01281078
Observed Flight Rules
Dec-16 @ 12:54 UTC
(51 minutes ago)
VFR
Wind Visibility
30° at 10 knots 10 miles
Clouds
  • Clear skies
Temperature Dewpoint
13°C / 55°F -8°C / 18°F
Humidity Altimeter Pressure
23% 30.13" Hg 1019.1 hPa